createdAt,value
2023-04-23T00:00:54.772Z,4.70
2023-04-23T00:04:02.371Z,2.60
2023-04-23T00:07:09.519Z,3.60
2023-04-23T00:10:18.935Z,4.00
2023-04-23T00:13:26.297Z,3.70
2023-04-23T00:16:33.829Z,3.00
2023-04-23T00:19:43.129Z,4.30
2023-04-23T00:22:50.675Z,3.00
2023-04-23T00:25:58.136Z,5.30
2023-04-23T00:29:07.001Z,4.60
2023-04-23T00:32:15.052Z,4.80
2023-04-23T00:35:22.308Z,6.00
2023-04-23T00:38:30.462Z,5.80
2023-04-23T00:41:38.908Z,3.90
2023-04-23T00:44:46.941Z,4.50
2023-04-23T00:47:54.241Z,4.40
2023-04-23T00:51:03.218Z,4.70
2023-04-23T00:54:10.675Z,6.60
2023-04-23T00:57:18.017Z,4.20
2023-04-23T01:00:26.846Z,3.30
2023-04-23T01:03:34.643Z,6.10
2023-04-23T01:06:41.730Z,3.70
2023-04-23T01:09:51.371Z,5.60
2023-04-23T01:12:58.805Z,4.90
2023-04-23T01:16:06.307Z,4.60
2023-04-23T01:19:13.674Z,6.10
2023-04-23T01:22:22.884Z,5.50
2023-04-23T01:25:30.690Z,4.50
2023-04-23T01:28:38.553Z,5.40
2023-04-23T01:31:47.068Z,4.80
2023-04-23T01:34:54.926Z,7.70
2023-04-23T01:38:02.404Z,4.80
2023-04-23T01:41:11.333Z,7.10
2023-04-23T01:44:18.798Z,4.30
2023-04-23T01:47:26.403Z,6.70
2023-04-23T01:50:35.343Z,5.80
2023-04-23T01:53:43.310Z,7.60
2023-04-23T01:56:50.369Z,5.10
2023-04-23T01:59:58.218Z,6.10
2023-04-23T02:03:06.724Z,4.00
2023-04-23T02:06:14.686Z,5.60
2023-04-23T02:09:22.033Z,4.60
2023-04-23T02:12:30.966Z,5.60
2023-04-23T02:15:38.521Z,5.90
2023-04-23T02:18:46.501Z,3.20
2023-04-23T02:21:55.056Z,5.20
2023-04-23T02:25:02.796Z,5.50
2023-04-23T02:28:09.765Z,5.00
2023-04-23T02:31:19.258Z,6.70
2023-04-23T02:34:26.718Z,4.10
2023-04-23T02:37:33.936Z,7.00
2023-04-23T02:40:41.331Z,5.20
2023-04-23T02:43:50.628Z,5.80
2023-04-23T02:46:58.273Z,5.90
2023-04-23T02:50:05.923Z,5.50
2023-04-23T02:53:14.759Z,8.10
2023-04-23T02:56:22.306Z,6.00
2023-04-23T02:59:30.449Z,5.80
2023-04-23T03:02:38.825Z,6.90
2023-04-23T03:05:46.818Z,9.50
2023-04-23T03:08:54.267Z,7.50
2023-04-23T03:12:03.173Z,7.50
2023-04-23T03:15:10.658Z,7.70
2023-04-23T03:18:18.206Z,9.40
2023-04-23T03:21:26.984Z,9.10
2023-04-23T03:24:34.743Z,8.50
2023-04-23T03:27:41.735Z,8.40
2023-04-23T03:30:49.724Z,9.90
2023-04-23T03:33:58.704Z,9.20
2023-04-23T03:37:06.097Z,10.00
2023-04-23T03:40:13.450Z,11.30
2023-04-23T03:43:22.412Z,10.40
2023-04-23T03:46:29.903Z,12.20
2023-04-23T03:49:37.689Z,12.90
2023-04-23T03:52:46.205Z,16.70
2023-04-23T03:55:53.786Z,19.40
2023-04-23T03:59:01.422Z,23.10
2023-04-23T04:02:10.349Z,31.20
2023-04-23T04:05:18.091Z,29.90
2023-04-23T04:08:25.562Z,32.60
2023-04-23T04:11:32.993Z,35.80
2023-04-23T04:14:42.619Z,40.70
2023-04-23T04:17:50.358Z,43.00
2023-04-23T04:20:57.905Z,40.60
2023-04-23T04:24:07.150Z,41.40
2023-04-23T04:27:14.102Z,46.10
2023-04-23T04:30:22.118Z,46.90
2023-04-23T04:33:30.652Z,49.70
2023-04-23T04:36:38.487Z,50.00
2023-04-23T04:39:45.920Z,59.40
2023-04-23T04:42:54.675Z,56.30
2023-04-23T04:46:02.202Z,65.10
2023-04-23T04:49:10.300Z,66.50
2023-04-23T04:52:17.394Z,66.50
2023-04-23T04:55:27.145Z,64.50
2023-04-23T04:58:34.175Z,67.60
2023-04-23T05:01:42.064Z,72.80
2023-04-23T05:04:51.477Z,72.10
2023-04-23T05:07:59.125Z,71.40
2023-04-23T05:11:06.488Z,78.50
2023-04-23T05:14:15.780Z,79.80
2023-04-23T05:17:23.051Z,77.30
2023-04-23T05:20:30.913Z,76.30
2023-04-23T05:23:39.542Z,80.50
2023-04-23T05:26:47.631Z,82.00
2023-04-23T05:29:55.118Z,79.40
2023-04-23T05:33:02.930Z,79.00
2023-04-23T05:36:11.544Z,79.80
2023-04-23T05:39:19.600Z,76.40
2023-04-23T05:42:26.659Z,75.70
2023-04-23T05:45:36.084Z,76.40
2023-04-23T05:48:43.172Z,71.50
2023-04-23T05:51:51.210Z,78.70
2023-04-23T05:55:00.225Z,90.60
2023-04-23T05:58:07.837Z,72.90
2023-04-23T06:01:15.456Z,76.30
2023-04-23T06:04:25.101Z,75.80
2023-04-23T06:07:32.302Z,74.30
2023-04-23T06:10:40.370Z,74.20
2023-04-23T06:13:48.823Z,70.80
2023-04-23T06:16:56.726Z,64.50
2023-04-23T06:20:04.500Z,69.60
2023-04-23T06:23:12.908Z,62.80
2023-04-23T06:26:21.537Z,69.90
2023-04-23T06:29:29.682Z,67.30
2023-04-23T06:32:36.919Z,66.60
2023-04-23T06:35:46.194Z,62.20
2023-04-23T06:38:53.232Z,70.00
2023-04-23T06:42:01.171Z,66.70
2023-04-23T06:45:10.092Z,73.50
2023-04-23T06:48:19.431Z,69.60
2023-04-23T06:51:27.010Z,67.70
2023-04-23T06:54:36.368Z,70.10
2023-04-23T06:57:43.707Z,77.20
2023-04-23T07:00:51.353Z,68.30
2023-04-23T07:03:58.899Z,69.10
2023-04-23T07:07:08.768Z,66.70
2023-04-23T07:10:18.018Z,61.60
2023-04-23T07:13:25.529Z,62.60
2023-04-23T07:16:34.755Z,73.80
2023-04-23T07:19:41.958Z,68.10
2023-04-23T07:22:49.311Z,64.90
2023-04-23T07:25:58.324Z,66.20
2023-04-23T07:29:05.700Z,59.40
2023-04-23T07:32:14.333Z,63.60
2023-04-23T07:35:22.945Z,74.80
2023-04-23T07:38:30.540Z,51.90
2023-04-23T07:41:38.071Z,54.30
2023-04-23T07:44:46.074Z,57.00
2023-04-23T07:47:54.626Z,49.90
2023-04-23T07:51:02.653Z,50.50
2023-04-23T07:54:10.829Z,43.60
2023-04-23T07:57:19.438Z,45.60
2023-04-23T08:00:27.360Z,53.20
2023-04-23T08:03:35.204Z,42.10
2023-04-23T08:06:43.827Z,59.30
2023-04-23T08:09:51.195Z,40.00
2023-04-23T08:12:58.960Z,34.60
2023-04-23T08:16:07.611Z,36.80
2023-04-23T08:19:15.498Z,37.10
2023-04-23T08:22:23.058Z,36.30
2023-04-23T08:25:32.127Z,38.00
2023-04-23T08:28:39.861Z,37.70
2023-04-23T08:31:47.454Z,32.50
2023-04-23T08:34:55.267Z,27.60
2023-04-23T08:38:04.415Z,31.00
2023-04-23T08:41:12.237Z,32.10
2023-04-23T08:44:20.004Z,27.80
2023-04-23T08:47:28.693Z,29.70
2023-04-23T08:50:36.853Z,29.00
2023-04-23T08:53:44.832Z,29.80
2023-04-23T08:56:53.504Z,29.00
2023-04-23T09:00:01.597Z,28.90
2023-04-23T09:03:09.477Z,30.00
2023-04-23T09:06:18.559Z,27.00
2023-04-23T09:09:26.603Z,28.20
2023-04-23T09:12:34.533Z,25.90
2023-04-23T09:15:41.894Z,29.10
2023-04-23T09:18:50.958Z,27.50
2023-04-23T09:21:58.426Z,23.30
2023-04-23T09:25:05.863Z,20.50
2023-04-23T09:28:15.000Z,19.00
2023-04-23T09:31:22.306Z,18.50
2023-04-23T09:34:29.712Z,18.90
2023-04-23T09:37:29.421Z,16.00
2023-04-23T09:40:36.686Z,16.60
2023-04-23T09:43:44.029Z,19.10
2023-04-23T09:46:52.900Z,17.80
2023-04-23T09:50:00.478Z,20.40
2023-04-23T09:53:07.822Z,19.10
2023-04-23T09:56:15.316Z,17.70
2023-04-23T09:59:39.483Z,16.90
2023-04-23T10:02:29.070Z,14.20
2023-04-23T10:05:45.402Z,12.90
2023-04-23T10:08:43.120Z,12.10
2023-04-23T10:11:51.039Z,12.70
2023-04-23T10:14:58.864Z,10.10
2023-04-23T10:18:07.808Z,8.70
2023-04-23T10:21:15.134Z,8.90
2023-04-23T10:24:23.029Z,8.70
2023-04-23T10:27:48.441Z,11.70
2023-04-23T10:30:36.386Z,9.40
2023-04-23T10:33:56.028Z,12.60
2023-04-23T10:36:49.003Z,11.40
2023-04-23T10:39:58.083Z,10.00
2023-04-23T10:43:05.584Z,11.40
2023-04-23T10:46:13.264Z,12.10
2023-04-23T10:49:22.021Z,11.30
2023-04-23T10:52:29.358Z,12.00
2023-04-23T10:55:37.122Z,9.10
2023-04-23T10:58:45.574Z,8.30
2023-04-23T11:01:53.432Z,8.10
2023-04-23T11:05:01.375Z,9.60
2023-04-23T11:08:19.429Z,7.30
2023-04-23T11:11:15.716Z,7.10
2023-04-23T11:14:23.324Z,7.40
2023-04-23T11:17:31.129Z,9.50
2023-04-23T11:20:32.317Z,8.10
2023-04-23T11:23:42.345Z,8.40
2023-04-23T11:26:50.196Z,8.70
2023-04-23T11:30:00.058Z,8.10
2023-04-23T11:33:08.151Z,8.30
2023-04-23T11:36:16.170Z,8.50
2023-04-23T11:39:24.583Z,8.60
2023-04-23T11:42:32.287Z,8.70
2023-04-23T11:45:40.152Z,31.70
2023-04-23T11:48:48.648Z,6.30
2023-04-23T11:51:56.152Z,114.70
2023-04-23T11:55:03.589Z,17.40
2023-04-23T11:58:12.667Z,6.20
2023-04-23T12:01:20.686Z,5.20
2023-04-23T12:04:28.559Z,4.80
2023-04-23T12:07:36.192Z,4.90
2023-04-23T12:10:46.021Z,4.00
2023-04-23T12:13:53.246Z,3.70
2023-04-23T12:17:00.732Z,3.50
2023-04-23T12:20:09.511Z,4.50
2023-04-23T12:23:17.353Z,3.00
2023-04-23T12:26:24.762Z,3.20
2023-04-23T12:29:33.628Z,4.60
2023-04-23T12:32:41.178Z,3.90
2023-04-23T12:35:48.549Z,3.20
2023-04-23T12:38:57.265Z,2.40
2023-04-23T12:42:05.182Z,2.80
2023-04-23T12:45:13.232Z,1.70
2023-04-23T12:48:20.539Z,2.20
2023-04-23T12:51:29.495Z,1.70
2023-04-23T12:54:36.508Z,4.90
2023-04-23T12:57:44.265Z,3.70
2023-04-23T13:00:53.243Z,2.40
2023-04-23T13:04:00.382Z,2.00
2023-04-23T13:07:08.129Z,2.00
2023-04-23T13:10:17.048Z,2.00
2023-04-23T13:13:24.183Z,2.90
2023-04-23T13:16:31.960Z,1.40
2023-04-23T13:19:40.745Z,1.80
2023-04-23T13:22:48.098Z,0.70
2023-04-23T13:25:55.873Z,1.70
2023-04-23T13:29:03.450Z,1.50
2023-04-23T13:32:13.366Z,3.10
2023-04-23T13:35:20.688Z,4.10
2023-04-23T13:38:28.120Z,3.10
2023-04-23T13:41:37.175Z,2.80
2023-04-23T13:44:44.810Z,4.60
2023-04-23T13:47:52.431Z,3.50
2023-04-23T13:51:01.818Z,5.60
2023-04-23T13:54:08.868Z,5.10
2023-04-23T13:57:17.337Z,4.30
2023-04-23T14:00:26.799Z,6.10
2023-04-23T14:03:34.010Z,4.10
2023-04-23T14:06:41.981Z,3.60
2023-04-23T14:09:51.433Z,2.90
2023-04-23T14:12:58.560Z,2.60
2023-04-23T14:16:06.332Z,3.60
2023-04-23T14:19:13.788Z,2.50
2023-04-23T14:22:22.469Z,3.30
2023-04-23T14:25:30.413Z,2.90
2023-04-23T14:28:37.592Z,2.00
2023-04-23T14:31:46.758Z,1.80
2023-04-23T14:34:54.759Z,1.30
2023-04-23T14:38:01.843Z,1.30
2023-04-23T14:41:10.775Z,2.20
2023-04-23T14:44:18.328Z,1.60
2023-04-23T14:47:25.840Z,1.60
2023-04-23T14:50:34.900Z,2.90
2023-04-23T14:53:42.499Z,1.90
2023-04-23T14:56:50.597Z,2.00
2023-04-23T14:59:58.062Z,1.50
2023-04-23T15:03:07.115Z,1.80
2023-04-23T15:06:15.054Z,2.10
2023-04-23T15:09:22.740Z,1.80
2023-04-23T15:12:31.611Z,1.80
2023-04-23T15:15:44.448Z,2.30
2023-04-23T15:18:41.329Z,2.20
2023-04-23T15:21:50.452Z,2.50
2023-04-23T15:24:58.083Z,1.40
2023-04-23T15:28:05.202Z,1.50
2023-04-23T15:31:14.829Z,2.10
2023-04-23T15:34:22.219Z,2.60
2023-04-23T15:37:29.195Z,2.10
2023-04-23T15:40:37.024Z,1.70
2023-04-23T15:43:45.880Z,2.10
2023-04-23T15:46:53.217Z,1.60
2023-04-23T15:50:01.066Z,1.50
2023-04-23T15:53:09.746Z,2.10
2023-04-23T15:56:17.223Z,2.20
2023-04-23T15:59:25.017Z,2.20
2023-04-23T16:02:34.102Z,2.20
2023-04-23T16:05:41.732Z,1.40
2023-04-23T16:08:49.572Z,1.30
2023-04-23T16:11:58.653Z,2.50
2023-04-23T16:15:06.110Z,2.30
2023-04-23T16:18:13.353Z,1.80
2023-04-23T16:21:21.485Z,2.10
2023-04-23T16:24:30.265Z,1.80
2023-04-23T16:27:37.471Z,3.20
2023-04-23T16:30:45.857Z,2.00
2023-04-23T16:33:55.754Z,3.70
2023-04-23T16:37:03.171Z,2.20
2023-04-23T16:40:11.637Z,2.80
2023-04-23T16:43:20.573Z,3.70
2023-04-23T16:46:28.312Z,1.70
2023-04-23T16:49:36.252Z,1.70
2023-04-23T16:52:45.671Z,2.00
2023-04-23T16:55:53.507Z,2.90
2023-04-23T16:59:01.526Z,2.10
2023-04-23T17:02:09.343Z,1.50
2023-04-23T17:05:18.496Z,1.30
2023-04-23T17:08:26.237Z,2.80
2023-04-23T17:11:34.391Z,1.30
2023-04-23T17:14:43.731Z,1.80
2023-04-23T17:17:51.130Z,1.60
2023-04-23T17:20:58.615Z,1.90
2023-04-23T17:24:08.132Z,3.40
2023-04-23T17:27:15.420Z,1.90
2023-04-23T17:30:23.671Z,2.60
2023-04-23T17:33:32.429Z,1.50
2023-04-23T17:36:39.836Z,1.50
2023-04-23T17:39:47.410Z,1.20
2023-04-23T17:42:55.940Z,3.30
2023-04-23T17:46:03.796Z,2.10
2023-04-23T17:49:11.265Z,2.80
2023-04-23T17:52:18.493Z,1.40
2023-04-23T17:55:27.244Z,1.70
2023-04-23T17:58:36.036Z,1.40
2023-04-23T18:01:45.071Z,2.20
2023-04-23T18:04:54.145Z,2.60
2023-04-23T18:08:01.492Z,2.10
2023-04-23T18:11:09.570Z,2.70
2023-04-23T18:14:18.600Z,2.70
2023-04-23T18:17:26.452Z,2.20
2023-04-23T18:20:34.530Z,2.80
2023-04-23T18:23:43.638Z,2.80
2023-04-23T18:26:51.061Z,3.30
2023-04-23T18:29:59.292Z,2.90
2023-04-23T18:33:06.849Z,1.90
2023-04-23T18:36:15.639Z,4.50
2023-04-23T18:39:23.595Z,3.40
2023-04-23T18:42:31.240Z,2.20
2023-04-23T18:45:40.044Z,3.00
2023-04-23T18:48:48.066Z,3.60
2023-04-23T18:51:55.727Z,2.50
2023-04-23T18:55:04.836Z,3.90
2023-04-23T18:58:12.908Z,4.10
2023-04-23T19:01:20.802Z,4.10
2023-04-23T19:04:30.380Z,2.70
2023-04-23T19:07:38.013Z,4.50
2023-04-23T19:10:46.223Z,2.30
2023-04-23T19:13:53.881Z,2.70
2023-04-23T19:17:02.916Z,3.60
2023-04-23T19:20:10.663Z,2.80
2023-04-23T19:23:18.202Z,2.70
2023-04-23T19:26:27.272Z,2.90
2023-04-23T19:29:35.265Z,3.00
2023-04-23T19:32:43.148Z,3.60
2023-04-23T19:35:52.141Z,4.80
2023-04-23T19:39:00.221Z,4.80
2023-04-23T19:42:07.978Z,4.30
2023-04-23T19:45:16.914Z,3.70
2023-04-23T19:48:24.768Z,3.20
2023-04-23T19:51:31.787Z,5.10
2023-04-23T19:54:39.131Z,3.30
2023-04-23T19:57:48.264Z,6.00
2023-04-23T20:00:55.654Z,5.30
2023-04-23T20:04:03.014Z,4.60
2023-04-23T20:07:11.798Z,3.90
2023-04-23T20:10:18.893Z,3.90
2023-04-23T20:13:26.321Z,5.00
2023-04-23T20:16:35.184Z,2.90
2023-04-23T20:19:44.186Z,5.20
2023-04-23T20:22:52.262Z,3.20
2023-04-23T20:26:02.309Z,2.90
2023-04-23T20:29:10.012Z,4.20
2023-04-23T20:32:17.724Z,3.80
2023-04-23T20:35:27.240Z,2.70
2023-04-23T20:38:34.740Z,2.30
2023-04-23T20:41:42.042Z,3.70
2023-04-23T20:44:49.954Z,3.80
2023-04-23T20:47:59.917Z,3.70
2023-04-23T20:51:07.256Z,4.40
2023-04-23T20:54:14.964Z,3.10
2023-04-23T20:57:24.540Z,3.40
2023-04-23T21:00:31.568Z,2.60
2023-04-23T21:03:39.618Z,6.10
2023-04-23T21:06:48.385Z,2.80
2023-04-23T21:09:55.839Z,4.10
2023-04-23T21:13:03.587Z,4.70
2023-04-23T21:16:12.494Z,3.30
2023-04-23T21:19:19.962Z,3.90
2023-04-23T21:22:27.826Z,4.00
2023-04-23T21:25:35.238Z,2.60
2023-04-23T21:28:44.061Z,3.90
2023-04-23T21:31:51.520Z,3.90
2023-04-23T21:34:59.337Z,3.40
2023-04-23T21:38:08.126Z,4.70
2023-04-23T21:41:15.570Z,3.20
2023-04-23T21:44:23.372Z,4.50
2023-04-23T21:47:32.270Z,3.80
2023-04-23T21:50:39.602Z,3.80
2023-04-23T21:53:47.719Z,4.10
2023-04-23T21:56:56.759Z,4.10
2023-04-23T22:00:04.310Z,4.20
2023-04-23T22:03:15.460Z,3.60
2023-04-23T22:06:16.513Z,5.10
2023-04-23T22:09:25.799Z,3.40
2023-04-23T22:12:33.545Z,3.90
2023-04-23T22:15:40.790Z,3.40
2023-04-23T22:18:50.203Z,1.50
2023-04-23T22:21:58.166Z,2.40
2023-04-23T22:25:05.223Z,1.50
2023-04-23T22:28:14.472Z,2.20
2023-04-23T22:31:21.951Z,1.90
2023-04-23T22:34:29.497Z,2.60
2023-04-23T22:37:38.873Z,1.40
2023-04-23T22:40:46.443Z,4.10
2023-04-23T22:43:54.338Z,1.80
2023-04-23T22:47:01.902Z,1.70
2023-04-23T22:50:10.688Z,1.80
2023-04-23T22:53:18.613Z,2.00
2023-04-23T22:56:25.955Z,2.30
2023-04-23T22:59:34.751Z,2.20
2023-04-23T23:02:42.866Z,2.60
2023-04-23T23:05:49.847Z,4.40
2023-04-23T23:08:59.224Z,1.90
2023-04-23T23:12:06.955Z,2.10
2023-04-23T23:15:14.005Z,4.00
2023-04-23T23:18:23.345Z,2.10
2023-04-23T23:21:30.974Z,3.60
2023-04-23T23:24:38.041Z,1.80
2023-04-23T23:27:47.284Z,2.40
2023-04-23T23:30:54.848Z,2.00
2023-04-23T23:34:02.013Z,1.50
2023-04-23T23:37:09.953Z,2.10
2023-04-23T23:40:18.802Z,1.80
2023-04-23T23:43:26.232Z,2.30
2023-04-23T23:46:34.030Z,1.20
2023-04-23T23:49:42.732Z,1.60
2023-04-23T23:52:50.862Z,1.50
2023-04-23T23:55:58.704Z,1.90
2023-04-23T23:59:07.108Z,0.90
